Powderville, Montana
Current Conditions -  °F | °C
As of 10:51 PM on Friday 28 Nov 2014 (Local Time) from KBHK Reporting Station
Clear Clear  
Wind Chill:   Ceiling: Unl
Heat Index:   Visibility: 10mi
Dew Point: -1°   Wind: 13mph
Humidity: 58%   Direction: 320°NW
Pressure: 29.38"   Gusts: NA
Location:  45.76°N, 105.11°W
Report Text: KBHK 290551Z AUTO 32011KT 10SM CLR 07/M01 A2938 RMK AO2 SLP951 T00671011 10111 20067 55007
Loading
Personal Weather Stations






























Interactive Weather Map New forecast layout! Learn more

10-Day Weather Forecast

Advertisements
Track Severe Weather on mobile